Time,TemperatureF,DewpointF,PressureIn,WindDirection,WindDirectionDegrees,WindSpeedMPH,WindSpeedGustMPH,Humidity,HourlyPrecipIn,Conditions,Clouds,dailyrainin,SoftwareType,DateUTC
2013-12-11 00:04:00,39.8,38.4,29.47,North,0,0.0,-999.0,94,0.00,,,-99.99,,2013-12-11 09:04:00,
2013-12-11 00:09:00,39.7,38.3,29.45,North,0,0.0,-999.0,94,0.00,,,-99.99,,2013-12-11 09:09:00,
2013-12-11 00:14:00,39.6,38.2,29.47,North,0,0.0,-999.0,94,0.00,,,-99.99,,2013-12-11 09:14:00,
2013-12-11 00:19:00,39.6,38.1,29.48,North,0,0.0,-999.0,94,0.00,,,-99.99,,2013-12-11 09:19:00,
2013-12-11 00:24:00,39.5,38.0,29.47,North,0,0.0,-999.0,94,0.00,,,-99.99,,2013-12-11 09:24:00,
2013-12-11 00:29:00,39.7,38.2,29.45,North,0,0.0,-999.0,94,0.00,,,-99.99,,2013-12-11 09:29:00,
2013-12-11 00:34:00,39.7,38.3,29.47,North,0,0.0,-999.0,94,0.00,,,-99.99,,2013-12-11 09:34:00,
2013-12-11 00:39:00,39.6,38.1,29.45,North,0,0.0,-999.0,94,0.00,,,-99.99,,2013-12-11 09:39:00,
2013-12-11 00:44:00,39.5,38.1,29.47,North,0,0.0,-999.0,94,0.00,,,-99.99,,2013-12-11 09:44:00,
2013-12-11 00:49:00,39.6,38.2,29.46,North,0,0.0,-999.0,95,0.00,,,-99.99,,2013-12-11 09:49:00,
2013-12-11 00:54:00,39.4,38.1,29.46,North,0,0.0,-999.0,95,0.00,,,-99.99,,2013-12-11 09:54:00,
2013-12-11 00:59:00,39.4,38.1,29.46,North,0,0.0,-999.0,95,0.00,,,-99.99,,2013-12-11 09:59:00,
2013-12-11 01:04:00,39.2,38.1,29.46,North,0,0.0,-999.0,95,0.00,,,-99.99,,2013-12-11 10:04:00,
2013-12-11 01:09:00,39.4,38.2,29.46,North,0,0.0,-999.0,95,0.00,,,-99.99,,2013-12-11 10:09:00,
2013-12-11 01:14:00,39.4,38.2,29.46,North,0,0.0,-999.0,95,0.00,,,-99.99,,2013-12-11 10:14:00,
2013-12-11 01:19:00,39.2,38.0,29.46,North,0,0.0,-999.0,95,0.00,,,-99.99,,2013-12-11 10:19:00,
2013-12-11 01:24:00,39.3,38.1,29.46,North,0,0.0,-999.0,95,0.00,,,-99.99,,2013-12-11 10:24:00,
2013-12-11 01:29:00,39.1,37.9,29.45,North,0,0.0,-999.0,95,0.00,,,-99.99,,2013-12-11 10:29:00,
2013-12-11 01:34:00,39.0,37.9,29.45,North,0,0.0,-999.0,95,0.00,,,-99.99,,2013-12-11 10:34:00,
2013-12-11 01:39:00,39.1,38.0,29.45,North,0,0.0,-999.0,95,0.00,,,-99.99,,2013-12-11 10:39:00,
2013-12-11 01:44:00,39.1,37.9,29.45,North,0,0.0,-999.0,95,0.00,,,-99.99,,2013-12-11 10:44:00,
2013-12-11 01:49:00,38.8,37.7,29.44,North,0,0.0,-999.0,95,0.00,,,-99.99,,2013-12-11 10:49:00,
2013-12-11 01:54:00,39.2,38.1,29.44,North,0,0.0,-999.0,95,0.00,,,-99.99,,2013-12-11 10:54:00,
2013-12-11 01:59:00,38.8,37.8,29.45,North,0,0.0,-999.0,96,0.00,,,-99.99,,2013-12-11 10:59:00,
2013-12-11 02:04:00,38.8,37.8,29.44,North,0,0.0,-999.0,96,0.00,,,-99.99,,2013-12-11 11:04:00,
2013-12-11 02:09:00,38.8,37.7,29.44,North,0,0.0,-999.0,96,0.00,,,-99.99,,2013-12-11 11:09:00,
2013-12-11 02:14:00,38.9,38.0,29.44,North,0,0.0,-999.0,96,0.00,,,-99.99,,2013-12-11 11:14:00,
2013-12-11 02:19:00,38.6,37.6,29.44,North,0,0.0,-999.0,96,0.00,,,-99.99,,2013-12-11 11:19:00,
2013-12-11 02:24:00,38.8,37.9,29.44,North,0,0.0,-999.0,96,0.00,,,-99.99,,2013-12-11 11:24:00,
2013-12-11 02:29:00,38.8,37.8,29.44,North,0,0.0,-999.0,96,0.00,,,-99.99,,2013-12-11 11:29:00,
2013-12-11 02:34:00,38.8,37.9,29.43,North,0,0.0,-999.0,96,0.00,,,-99.99,,2013-12-11 11:34:00,
2013-12-11 02:39:00,38.7,37.7,29.44,North,0,0.0,-999.0,96,0.00,,,-99.99,,2013-12-11 11:39:00,
2013-12-11 02:44:00,38.5,37.5,29.43,North,0,0.0,-999.0,96,0.00,,,-99.99,,2013-12-11 11:44:00,
2013-12-11 02:49:00,38.3,37.4,29.43,North,0,0.0,-999.0,96,0.00,,,-99.99,,2013-12-11 11:49:00,
2013-12-11 02:54:00,38.3,37.4,29.43,North,0,0.0,-999.0,96,0.00,,,-99.99,,2013-12-11 11:54:00,
2013-12-11 02:59:00,38.2,37.2,29.43,North,0,0.0,-999.0,96,0.00,,,-99.99,,2013-12-11 11:59:00,
2013-12-11 03:04:00,38.3,37.3,29.43,North,0,0.0,-999.0,96,0.00,,,-99.99,,2013-12-11 12:04:00,
2013-12-11 03:09:00,38.0,37.0,29.43,North,0,0.0,-999.0,96,0.00,,,-99.99,,2013-12-11 12:09:00,
2013-12-11 03:14:00,38.0,36.9,29.43,North,0,0.0,-999.0,96,0.00,,,-99.99,,2013-12-11 12:14:00,
2013-12-11 03:19:00,37.8,36.8,29.43,North,0,0.0,-999.0,95,0.00,,,-99.99,,2013-12-11 12:19:00,
2013-12-11 03:24:00,37.8,36.7,29.43,North,0,0.0,-999.0,95,0.00,,,-99.99,,2013-12-11 12:24:00,
2013-12-11 03:29:00,37.9,36.8,29.43,North,0,0.0,-999.0,95,0.00,,,-99.99,,2013-12-11 12:29:00,
2013-12-11 03:34:00,37.5,36.4,29.43,North,0,0.0,-999.0,95,0.00,,,-99.99,,2013-12-11 12:34:00,
2013-12-11 03:39:00,37.6,36.5,29.42,North,0,0.0,-999.0,95,0.00,,,-99.99,,2013-12-11 12:39:00,
2013-12-11 03:44:00,37.6,36.5,29.42,North,0,0.0,-999.0,95,0.00,,,-99.99,,2013-12-11 12:44:00,
2013-12-11 03:49:00,37.5,36.4,29.41,North,0,0.0,-999.0,95,0.00,,,-99.99,,2013-12-11 12:49:00,
2013-12-11 03:54:00,37.3,36.1,29.42,North,0,0.0,-999.0,95,0.00,,,-99.99,,2013-12-11 12:54:00,
2013-12-11 03:59:00,37.2,36.0,29.42,North,0,0.0,-999.0,95,0.00,,,-99.99,,2013-12-11 12:59:00,
2013-12-11 04:04:00,37.0,35.9,29.43,North,0,0.0,-999.0,95,0.00,,,-99.99,,2013-12-11 13:04:00,
2013-12-11 04:09:00,37.0,35.8,29.42,North,0,0.0,-999.0,95,0.00,,,-99.99,,2013-12-11 13:09:00,
2013-12-11 04:14:00,36.7,35.5,29.42,North,0,0.0,-999.0,95,0.00,,,-99.99,,2013-12-11 13:14:00,
2013-12-11 04:19:00,36.8,35.6,29.42,North,0,0.0,-999.0,95,0.00,,,-99.99,,2013-12-11 13:19:00,
2013-12-11 04:24:00,36.8,35.6,29.42,North,0,0.0,-999.0,95,0.00,,,-99.99,,2013-12-11 13:24:00,
2013-12-11 04:29:00,36.7,35.5,29.42,North,0,0.0,-999.0,95,0.00,,,-99.99,,2013-12-11 13:29:00,
2013-12-11 04:34:00,36.4,35.1,29.41,North,0,0.0,-999.0,95,0.00,,,-99.99,,2013-12-11 13:34:00,
2013-12-11 04:39:00,36.4,35.2,29.42,North,0,0.0,-999.0,95,0.00,,,-99.99,,2013-12-11 13:39:00,
2013-12-11 04:44:00,36.7,35.5,29.40,North,0,0.0,-999.0,95,0.00,,,-99.99,,2013-12-11 13:44:00,
2013-12-11 04:49:00,36.5,35.2,29.41,North,0,0.0,-999.0,94,0.00,,,-99.99,,2013-12-11 13:49:00,
2013-12-11 04:54:00,36.4,35.1,29.41,North,0,0.0,-999.0,94,0.00,,,-99.99,,2013-12-11 13:54:00,
2013-12-11 04:59:00,36.4,35.0,29.41,North,0,0.0,-999.0,94,0.00,,,-99.99,,2013-12-11 13:59:00,
2013-12-11 05:04:00,36.3,34.9,29.39,North,0,0.0,-999.0,94,0.00,,,-99.99,,2013-12-11 14:04:00,
2013-12-11 05:09:00,36.4,35.1,29.41,North,0,0.0,-999.0,94,0.00,,,-99.99,,2013-12-11 14:09:00,
2013-12-11 05:14:00,36.4,35.0,29.40,North,0,0.0,-999.0,94,0.00,,,-99.99,,2013-12-11 14:14:00,
2013-12-11 05:19:00,36.2,34.7,29.41,North,0,0.0,-999.0,94,0.00,,,-99.99,,2013-12-11 14:19:00,
2013-12-11 05:24:00,36.0,34.5,29.40,North,0,0.0,-999.0,94,0.00,,,-99.99,,2013-12-11 14:24:00,
2013-12-11 05:29:00,35.9,34.5,29.41,North,0,0.0,-999.0,94,0.00,,,-99.99,,2013-12-11 14:29:00,
2013-12-11 05:34:00,35.8,34.3,29.40,North,0,0.0,-999.0,94,0.00,,,-99.99,,2013-12-11 14:34:00,
2013-12-11 05:39:00,35.9,34.5,29.41,North,0,0.0,-999.0,94,0.00,,,-99.99,,2013-12-11 14:39:00,
2013-12-11 05:44:00,35.5,33.9,29.40,North,0,0.0,-999.0,94,0.00,,,-99.99,,2013-12-11 14:44:00,
2013-12-11 05:49:00,35.4,34.0,29.40,North,0,0.0,-999.0,94,0.00,,,-99.99,,2013-12-11 14:49:00,
2013-12-11 05:54:00,34.9,33.3,29.40,North,0,0.0,-999.0,93,0.00,,,-99.99,,2013-12-11 14:54:00,
2013-12-11 05:59:00,34.5,33.0,29.40,North,0,0.0,-999.0,94,0.00,,,-99.99,,2013-12-11 14:59:00,
2013-12-11 06:04:00,34.4,32.8,29.40,North,0,0.0,-999.0,93,0.00,,,-99.99,,2013-12-11 15:04:00,
2013-12-11 06:09:00,34.1,32.5,29.40,North,0,0.0,-999.0,93,0.00,,,-99.99,,2013-12-11 15:09:00,
2013-12-11 06:14:00,33.9,32.3,29.38,North,0,0.0,-999.0,93,0.00,,,-99.99,,2013-12-11 15:14:00,
2013-12-11 06:19:00,33.6,31.9,29.38,North,0,0.0,-999.0,93,0.00,,,-99.99,,2013-12-11 15:19:00,
2013-12-11 06:24:00,33.5,31.8,29.39,North,0,0.0,-999.0,93,0.00,,,-99.99,,2013-12-11 15:24:00,
2013-12-11 06:29:00,33.0,31.2,29.40,North,0,0.0,-999.0,92,0.00,,,-99.99,,2013-12-11 15:29:00,
2013-12-11 06:34:00,32.9,31.1,29.40,North,0,0.0,-999.0,92,0.00,,,-99.99,,2013-12-11 15:34:00,
2013-12-11 06:39:00,32.7,30.9,29.40,North,0,0.0,-999.0,92,0.00,,,-99.99,,2013-12-11 15:39:00,
2013-12-11 06:44:00,32.7,31.0,29.40,North,0,0.0,-999.0,93,0.00,,,-99.99,,2013-12-11 15:44:00,
2013-12-11 06:49:00,32.3,30.6,29.40,North,0,0.0,-999.0,93,0.00,,,-99.99,,2013-12-11 15:49:00,
2013-12-11 06:54:00,32.5,30.8,29.40,North,0,0.0,-999.0,93,0.00,,,-99.99,,2013-12-11 15:54:00,
2013-12-11 06:59:00,32.1,30.5,29.41,North,0,0.0,-999.0,93,0.00,,,-99.99,,2013-12-11 15:59:00,
2013-12-11 07:04:00,32.2,30.5,29.40,North,0,0.0,-999.0,93,0.00,,,-99.99,,2013-12-11 16:04:00,
2013-12-11 07:09:00,32.1,30.4,29.40,North,0,0.0,-999.0,93,0.00,,,-99.99,,2013-12-11 16:09:00,
2013-12-11 07:14:00,31.7,29.9,29.41,North,0,0.0,-999.0,92,0.00,,,-99.99,,2013-12-11 16:14:00,
2013-12-11 07:19:00,31.8,30.1,29.41,North,0,0.0,-999.0,93,0.00,,,-99.99,,2013-12-11 16:19:00,
2013-12-11 07:24:00,31.7,29.8,29.40,North,0,0.0,-999.0,92,0.00,,,-99.99,,2013-12-11 16:24:00,
2013-12-11 07:29:00,31.8,29.8,29.40,North,0,0.0,-999.0,92,0.00,,,-99.99,,2013-12-11 16:29:00,
2013-12-11 07:34:00,31.5,29.4,29.40,North,0,0.0,-999.0,91,0.00,,,-99.99,,2013-12-11 16:34:00,
2013-12-11 07:39:00,31.5,29.2,29.40,North,0,0.0,-999.0,91,0.00,,,-99.99,,2013-12-11 16:39:00,
2013-12-11 07:44:00,31.4,29.2,29.40,North,0,0.0,-999.0,91,0.00,,,-99.99,,2013-12-11 16:44:00,
2013-12-11 07:49:00,31.5,29.4,29.40,North,0,0.0,-999.0,91,0.00,,,-99.99,,2013-12-11 16:49:00,
2013-12-11 07:54:00,31.4,29.3,29.40,North,0,0.0,-999.0,92,0.00,,,-99.99,,2013-12-11 16:54:00,
2013-12-11 07:59:00,31.0,29.0,29.40,North,0,0.0,-999.0,91,0.00,,,-99.99,,2013-12-11 16:59:00,
2013-12-11 08:04:00,31.3,29.2,29.40,North,0,0.0,-999.0,91,0.00,,,-99.99,,2013-12-11 17:04:00,
2013-12-11 08:09:00,31.4,29.2,29.40,North,0,0.0,-999.0,91,0.00,,,-99.99,,2013-12-11 17:09:00,
2013-12-11 08:14:00,31.2,29.0,29.40,North,0,0.0,-999.0,91,0.00,,,-99.99,,2013-12-11 17:14:00,
2013-12-11 08:19:00,31.2,29.0,29.40,North,0,0.0,-999.0,91,0.00,,,-99.99,,2013-12-11 17:19:00,
2013-12-11 08:24:00,31.3,29.0,29.39,North,0,0.0,-999.0,91,0.00,,,-99.99,,2013-12-11 17:24:00,
2013-12-11 08:29:00,31.5,28.9,29.39,North,0,0.0,-999.0,89,0.00,,,-99.99,,2013-12-11 17:29:00,
2013-12-11 08:34:00,31.5,28.6,29.39,North,0,0.0,-999.0,88,0.00,,,-99.99,,2013-12-11 17:34:00,
2013-12-11 08:39:00,31.7,28.8,29.39,North,0,0.0,-999.0,89,0.00,,,-99.99,,2013-12-11 17:39:00,
2013-12-11 08:44:00,31.8,28.9,29.39,North,0,0.0,-999.0,88,0.00,,,-99.99,,2013-12-11 17:44:00,
2013-12-11 08:49:00,31.5,28.6,29.39,North,0,0.0,-999.0,88,0.00,,,-99.99,,2013-12-11 17:49:00,
2013-12-11 08:54:00,31.8,28.6,29.40,North,0,0.0,-999.0,87,0.00,,,-99.99,,2013-12-11 17:54:00,
2013-12-11 08:59:00,31.4,28.1,29.39,North,0,0.0,-999.0,87,0.00,,,-99.99,,2013-12-11 17:59:00,
2013-12-11 09:04:00,31.5,28.2,29.40,North,0,0.0,-999.0,87,0.00,,,-99.99,,2013-12-11 18:04:00,
2013-12-11 09:09:00,31.7,27.9,29.40,North,0,0.0,-999.0,85,0.00,,,-99.99,,2013-12-11 18:09:00,
2013-12-11 09:14:00,31.7,27.8,29.39,North,0,0.0,-999.0,85,0.00,,,-99.99,,2013-12-11 18:14:00,
2013-12-11 09:19:00,31.7,27.8,29.39,North,0,0.0,-999.0,85,0.00,,,-99.99,,2013-12-11 18:19:00,
2013-12-11 09:24:00,32.0,28.4,29.39,North,0,0.0,-999.0,86,0.00,,,-99.99,,2013-12-11 18:24:00,
2013-12-11 09:29:00,32.0,28.7,29.39,North,0,0.0,-999.0,87,0.00,,,-99.99,,2013-12-11 18:29:00,
2013-12-11 09:34:00,31.5,28.5,29.40,North,0,0.0,-999.0,88,0.00,,,-99.99,,2013-12-11 18:34:00,
2013-12-11 09:39:00,31.6,28.7,29.40,North,0,0.0,-999.0,88,0.00,,,-99.99,,2013-12-11 18:39:00,
2013-12-11 09:44:00,31.6,28.8,29.38,North,0,0.0,-999.0,89,0.00,,,-99.99,,2013-12-11 18:44:00,
2013-12-11 09:49:00,31.5,28.5,29.39,North,0,0.0,-999.0,88,0.00,,,-99.99,,2013-12-11 18:49:00,
2013-12-11 09:54:00,31.6,28.4,29.40,North,0,0.0,-999.0,87,0.00,,,-99.99,,2013-12-11 18:54:00,
2013-12-11 09:59:00,31.8,28.4,29.39,North,0,0.0,-999.0,87,0.00,,,-99.99,,2013-12-11 18:59:00,
2013-12-11 10:04:00,31.7,28.0,29.40,North,0,0.0,-999.0,85,0.00,,,-99.99,,2013-12-11 19:04:00,
2013-12-11 10:09:00,31.7,27.5,29.40,North,0,0.0,-999.0,84,0.00,,,-99.99,,2013-12-11 19:09:00,
2013-12-11 10:14:00,31.8,27.8,29.40,North,0,0.0,-999.0,84,0.00,,,-99.99,,2013-12-11 19:14:00,
2013-12-11 10:19:00,31.7,27.2,29.41,North,0,0.0,-999.0,83,0.00,,,-99.99,,2013-12-11 19:19:00,
2013-12-11 10:24:00,32.0,27.2,29.39,North,0,0.0,-999.0,82,0.00,,,-99.99,,2013-12-11 19:24:00,
2013-12-11 10:29:00,32.1,27.6,29.40,North,0,0.0,-999.0,83,0.00,,,-99.99,,2013-12-11 19:29:00,
2013-12-11 10:34:00,32.3,27.6,29.41,North,0,0.0,-999.0,82,0.00,,,-99.99,,2013-12-11 19:34:00,
2013-12-11 10:39:00,32.0,27.6,29.41,North,0,0.0,-999.0,83,0.00,,,-99.99,,2013-12-11 19:39:00,
2013-12-11 10:44:00,32.1,28.1,29.40,North,0,0.0,-999.0,85,0.00,,,-99.99,,2013-12-11 19:44:00,
2013-12-11 10:49:00,32.0,27.9,29.41,North,0,0.0,-999.0,84,0.00,,,-99.99,,2013-12-11 19:49:00,
2013-12-11 10:54:00,32.0,26.8,29.41,North,0,0.0,-999.0,81,0.00,,,-99.99,,2013-12-11 19:54:00,
2013-12-11 10:59:00,32.4,28.2,29.41,North,0,0.0,-999.0,84,0.00,,,-99.99,,2013-12-11 19:59:00,
2013-12-11 11:04:00,32.0,27.4,29.42,North,0,0.0,-999.0,82,0.00,,,-99.99,,2013-12-11 20:04:00,
2013-12-11 11:09:00,32.2,27.5,29.42,North,0,0.0,-999.0,82,0.00,,,-99.99,,2013-12-11 20:09:00,
2013-12-11 11:14:00,32.2,26.9,29.42,North,0,0.0,-999.0,80,0.00,,,-99.99,,2013-12-11 20:14:00,
2013-12-11 11:19:00,32.6,26.9,29.41,North,0,0.0,-999.0,79,0.00,,,-99.99,,2013-12-11 20:19:00,
2013-12-11 11:24:00,32.4,27.0,29.41,North,0,0.0,-999.0,80,0.00,,,-99.99,,2013-12-11 20:24:00,
2013-12-11 11:29:00,32.1,25.7,29.41,North,0,0.0,-999.0,77,0.00,,,-99.99,,2013-12-11 20:29:00,
2013-12-11 11:34:00,32.3,25.4,29.41,North,0,0.0,-999.0,75,0.00,,,-99.99,,2013-12-11 20:34:00,
2013-12-11 11:39:00,32.4,26.2,29.40,North,0,0.0,-999.0,77,0.00,,,-99.99,,2013-12-11 20:39:00,
2013-12-11 11:44:00,32.4,24.4,29.40,North,0,0.0,-999.0,72,0.00,,,-99.99,,2013-12-11 20:44:00,
2013-12-11 11:49:00,32.4,26.0,29.40,North,0,0.0,-999.0,76,0.00,,,-99.99,,2013-12-11 20:49:00,
2013-12-11 11:54:00,32.7,26.7,29.40,North,0,0.0,-999.0,78,0.00,,,-99.99,,2013-12-11 20:54:00,
2013-12-11 11:59:00,32.7,26.5,29.41,North,0,0.0,-999.0,77,0.00,,,-99.99,,2013-12-11 20:59:00,
2013-12-11 12:04:00,32.3,25.8,29.41,North,0,0.0,-999.0,76,0.00,,,-99.99,,2013-12-11 21:04:00,
2013-12-11 12:09:00,32.4,25.1,29.40,North,0,0.0,-999.0,74,0.00,,,-99.99,,2013-12-11 21:09:00,
2013-12-11 12:14:00,32.5,25.7,29.40,North,0,0.0,-999.0,75,0.00,,,-99.99,,2013-12-11 21:14:00,
2013-12-11 12:19:00,32.6,26.2,29.40,North,0,0.0,-999.0,77,0.00,,,-99.99,,2013-12-11 21:19:00,
2013-12-11 12:24:00,32.5,26.0,29.40,North,0,0.0,-999.0,76,0.00,,,-99.99,,2013-12-11 21:24:00,
2013-12-11 12:29:00,32.3,25.9,29.40,North,0,0.0,-999.0,77,0.00,,,-99.99,,2013-12-11 21:29:00,
2013-12-11 12:34:00,32.4,26.2,29.41,North,0,0.0,-999.0,77,0.00,,,-99.99,,2013-12-11 21:34:00,
2013-12-11 12:39:00,32.3,25.9,29.40,North,0,0.0,-999.0,77,0.00,,,-99.99,,2013-12-11 21:39:00,
2013-12-11 12:44:00,32.3,25.6,29.39,North,0,0.0,-999.0,76,0.00,,,-99.99,,2013-12-11 21:44:00,
2013-12-11 12:49:00,32.5,25.6,29.40,North,0,0.0,-999.0,75,0.00,,,-99.99,,2013-12-11 21:49:00,
2013-12-11 12:54:00,32.5,25.6,29.40,North,0,0.0,-999.0,75,0.00,,,-99.99,,2013-12-11 21:54:00,
2013-12-11 12:59:00,32.6,26.2,29.39,North,0,0.0,-999.0,77,0.00,,,-99.99,,2013-12-11 21:59:00,
2013-12-11 13:04:00,32.7,26.3,29.40,North,0,0.0,-999.0,76,0.00,,,-99.99,,2013-12-11 22:04:00,
2013-12-11 13:09:00,32.8,25.7,29.40,North,0,0.0,-999.0,75,0.00,,,-99.99,,2013-12-11 22:09:00,
2013-12-11 13:14:00,33.2,26.0,29.39,North,0,0.0,-999.0,74,0.00,,,-99.99,,2013-12-11 22:14:00,
2013-12-11 13:19:00,33.5,26.1,29.39,North,0,0.0,-999.0,73,0.00,,,-99.99,,2013-12-11 22:19:00,
2013-12-11 13:24:00,33.9,26.1,29.39,North,0,0.0,-999.0,72,0.00,,,-99.99,,2013-12-11 22:24:00,
2013-12-11 13:29:00,33.4,25.4,29.39,North,0,0.0,-999.0,72,0.00,,,-99.99,,2013-12-11 22:29:00,
2013-12-11 13:34:00,33.7,26.2,29.40,North,0,0.0,-999.0,73,0.00,,,-99.99,,2013-12-11 22:34:00,
2013-12-11 13:39:00,33.4,25.7,29.40,North,0,0.0,-999.0,72,0.00,,,-99.99,,2013-12-11 22:39:00,
2013-12-11 13:44:00,33.5,26.1,29.39,North,0,0.0,-999.0,74,0.00,,,-99.99,,2013-12-11 22:44:00,
2013-12-11 13:49:00,33.4,26.0,29.40,North,0,0.0,-999.0,74,0.00,,,-99.99,,2013-12-11 22:49:00,
2013-12-11 13:54:00,33.5,26.3,29.40,North,0,0.0,-999.0,74,0.00,,,-99.99,,2013-12-11 22:54:00,
2013-12-11 13:59:00,33.4,26.0,29.40,North,0,0.0,-999.0,73,0.00,,,-99.99,,2013-12-11 22:59:00,
2013-12-11 14:04:00,33.2,25.4,29.40,North,0,0.0,-999.0,72,0.00,,,-99.99,,2013-12-11 23:04:00,
2013-12-11 14:09:00,33.1,25.0,29.40,North,0,0.0,-999.0,71,0.00,,,-99.99,,2013-12-11 23:09:00,
2013-12-11 14:14:00,33.2,24.8,29.39,North,0,0.0,-999.0,71,0.00,,,-99.99,,2013-12-11 23:14:00,
2013-12-11 14:19:00,33.1,24.0,29.38,North,0,0.0,-999.0,68,0.00,,,-99.99,,2013-12-11 23:19:00,
2013-12-11 14:24:00,33.5,23.4,29.40,North,0,0.0,-999.0,66,0.00,,,-99.99,,2013-12-11 23:24:00,
2013-12-11 14:29:00,33.4,24.1,29.38,North,0,0.0,-999.0,68,0.00,,,-99.99,,2013-12-11 23:29:00,
2013-12-11 14:36:00,33.5,25.6,29.40,North,0,0.0,-999.0,72,0.00,,,-99.99,,2013-12-11 23:36:00,
2013-12-11 14:41:00,33.4,25.9,29.40,North,0,0.0,-999.0,73,0.00,,,-99.99,,2013-12-11 23:41:00,
2013-12-11 14:46:00,33.0,25.5,29.40,North,0,0.0,-999.0,73,0.00,,,-99.99,,2013-12-11 23:46:00,
2013-12-11 14:51:00,33.2,25.6,29.40,North,0,0.0,-999.0,73,0.00,,,-99.99,,2013-12-11 23:51:00,
2013-12-11 14:56:00,32.7,24.1,29.40,North,0,0.0,-999.0,70,0.00,,,-99.99,,2013-12-11 23:56:00,
2013-12-11 15:01:00,33.1,25.5,29.40,North,0,0.0,-999.0,73,0.00,,,-99.99,,2013-12-12 00:01:00,
2013-12-11 15:06:00,33.1,25.9,29.39,North,0,0.0,-999.0,74,0.00,,,-99.99,,2013-12-12 00:06:00,
2013-12-11 15:11:00,33.0,24.4,29.39,North,0,0.0,-999.0,70,0.00,,,-99.99,,2013-12-12 00:11:00,
2013-12-11 15:16:00,33.0,24.7,29.38,North,0,0.0,-999.0,70,0.00,,,-99.99,,2013-12-12 00:16:00,
2013-12-11 15:21:00,33.2,26.0,29.39,North,0,0.0,-999.0,74,0.00,,,-99.99,,2013-12-12 00:21:00,
2013-12-11 15:26:00,33.0,25.8,29.38,North,0,0.0,-999.0,74,0.00,,,-99.99,,2013-12-12 00:26:00,
2013-12-11 15:31:00,32.9,25.4,29.38,North,0,0.0,-999.0,73,0.00,,,-99.99,,2013-12-12 00:31:00,
2013-12-11 15:36:00,32.9,25.7,29.38,North,0,0.0,-999.0,74,0.00,,,-99.99,,2013-12-12 00:36:00,
2013-12-11 15:41:00,32.6,25.0,29.38,North,0,0.0,-999.0,73,0.00,,,-99.99,,2013-12-12 00:41:00,
2013-12-11 15:46:00,32.9,25.8,29.38,North,0,0.0,-999.0,75,0.00,,,-99.99,,2013-12-12 00:46:00,
2013-12-11 15:51:00,32.8,26.0,29.38,North,0,0.0,-999.0,75,0.00,,,-99.99,,2013-12-12 00:51:00,
2013-12-11 15:56:00,32.6,26.2,29.38,North,0,0.0,-999.0,76,0.00,,,-99.99,,2013-12-12 00:56:00,
2013-12-11 16:01:00,32.5,26.2,29.38,North,0,0.0,-999.0,77,0.00,,,-99.99,,2013-12-12 01:01:00,
2013-12-11 16:06:00,32.5,26.4,29.37,North,0,0.0,-999.0,77,0.00,,,-99.99,,2013-12-12 01:06:00,
2013-12-11 16:11:00,32.6,27.0,29.38,North,0,0.0,-999.0,79,0.00,,,-99.99,,2013-12-12 01:11:00,
2013-12-11 16:16:00,32.4,26.6,29.37,North,0,0.0,-999.0,79,0.00,,,-99.99,,2013-12-12 01:16:00,
2013-12-11 16:21:00,32.7,26.8,29.37,North,0,0.0,-999.0,78,0.00,,,-99.99,,2013-12-12 01:21:00,
2013-12-11 16:26:00,32.5,26.1,29.37,North,0,0.0,-999.0,77,0.00,,,-99.99,,2013-12-12 01:26:00,
2013-12-11 16:31:00,32.8,26.5,29.38,North,0,0.0,-999.0,77,0.00,,,-99.99,,2013-12-12 01:31:00,
2013-12-11 16:36:00,32.8,26.8,29.38,North,0,0.0,-999.0,78,0.00,,,-99.99,,2013-12-12 01:36:00,
2013-12-11 16:41:00,32.8,26.9,29.38,North,0,0.0,-999.0,78,0.00,,,-99.99,,2013-12-12 01:41:00,
2013-12-11 16:46:00,32.6,26.6,29.38,North,0,0.0,-999.0,78,0.00,,,-99.99,,2013-12-12 01:46:00,
2013-12-11 16:51:00,32.6,26.4,29.38,North,0,0.0,-999.0,77,0.00,,,-99.99,,2013-12-12 01:51:00,
2013-12-11 16:56:00,32.6,26.9,29.38,North,0,0.0,-999.0,79,0.00,,,-99.99,,2013-12-12 01:56:00,
2013-12-11 17:01:00,32.4,26.7,29.37,North,0,0.0,-999.0,79,0.00,,,-99.99,,2013-12-12 02:01:00,
2013-12-11 17:06:00,32.5,26.6,29.37,North,0,0.0,-999.0,78,0.00,,,-99.99,,2013-12-12 02:06:00,
2013-12-11 17:11:00,32.2,26.6,29.37,North,0,0.0,-999.0,79,0.00,,,-99.99,,2013-12-12 02:11:00,
2013-12-11 17:16:00,32.3,26.3,29.37,North,0,0.0,-999.0,78,0.00,,,-99.99,,2013-12-12 02:16:00,
2013-12-11 17:21:00,32.3,26.5,29.36,North,0,0.0,-999.0,79,0.00,,,-99.99,,2013-12-12 02:21:00,
2013-12-11 17:26:00,32.4,26.9,29.37,North,0,0.0,-999.0,79,0.00,,,-99.99,,2013-12-12 02:26:00,
2013-12-11 17:31:00,32.4,26.8,29.36,North,0,0.0,-999.0,79,0.00,,,-99.99,,2013-12-12 02:31:00,
2013-12-11 17:36:00,32.4,26.4,29.36,North,0,0.0,-999.0,78,0.00,,,-99.99,,2013-12-12 02:36:00,
2013-12-11 17:41:00,32.3,26.9,29.36,North,0,0.0,-999.0,80,0.00,,,-99.99,,2013-12-12 02:41:00,
2013-12-11 17:46:00,32.4,26.8,29.36,North,0,0.0,-999.0,79,0.00,,,-99.99,,2013-12-12 02:46:00,
2013-12-11 17:51:00,32.4,27.1,29.36,North,0,0.0,-999.0,80,0.00,,,-99.99,,2013-12-12 02:51:00,
2013-12-11 17:56:00,32.6,27.2,29.36,North,0,0.0,-999.0,80,0.00,,,-99.99,,2013-12-12 02:56:00,
2013-12-11 18:01:00,32.3,26.8,29.36,North,0,0.0,-999.0,79,0.00,,,-99.99,,2013-12-12 03:01:00,
2013-12-11 18:06:00,32.4,27.0,29.35,North,0,0.0,-999.0,80,0.00,,,-99.99,,2013-12-12 03:06:00,
2013-12-11 18:11:00,32.7,27.2,29.35,North,0,0.0,-999.0,80,0.00,,,-99.99,,2013-12-12 03:11:00,
2013-12-11 18:16:00,32.8,27.3,29.35,North,0,0.0,-999.0,80,0.00,,,-99.99,,2013-12-12 03:16:00,
2013-12-11 18:21:00,32.6,27.2,29.36,North,0,0.0,-999.0,80,0.00,,,-99.99,,2013-12-12 03:21:00,
2013-12-11 18:26:00,32.6,27.4,29.36,North,0,0.0,-999.0,80,0.00,,,-99.99,,2013-12-12 03:26:00,
2013-12-11 18:31:00,32.6,27.6,29.35,North,0,0.0,-999.0,81,0.00,,,-99.99,,2013-12-12 03:31:00,
2013-12-11 18:36:00,32.3,27.0,29.35,North,0,0.0,-999.0,80,0.00,,,-99.99,,2013-12-12 03:36:00,
2013-12-11 18:41:00,32.4,27.0,29.35,North,0,0.0,-999.0,80,0.00,,,-99.99,,2013-12-12 03:41:00,
2013-12-11 18:46:00,32.5,27.1,29.35,North,0,0.0,-999.0,80,0.00,,,-99.99,,2013-12-12 03:46:00,
2013-12-11 18:51:00,32.6,27.0,29.36,North,0,0.0,-999.0,79,0.00,,,-99.99,,2013-12-12 03:51:00,
2013-12-11 18:53:00,32.2,27.9,29.36,North,0,0.0,-999.0,83,0.00,,,-99.99,,2013-12-12 03:53:00,
2013-12-11 18:54:00,32.2,27.9,29.36,North,0,0.0,-999.0,84,0.00,,,-99.99,,2013-12-12 03:54:00,
2013-12-11 18:55:00,32.1,27.9,29.34,North,0,0.0,-999.0,84,0.00,,,-99.99,,2013-12-12 03:55:00,
2013-12-11 18:56:00,32.6,26.8,29.36,North,0,0.0,-999.0,79,0.00,,,-99.99,,2013-12-12 03:56:00,
2013-12-11 18:57:00,32.3,28.0,29.34,North,0,0.0,-999.0,84,0.00,,,-99.99,,2013-12-12 03:57:00,
2013-12-11 18:58:00,32.2,27.9,29.34,North,0,0.0,-999.0,84,0.00,,,-99.99,,2013-12-12 03:58:00,
2013-12-11 18:59:00,32.2,28.0,29.34,North,0,0.0,-999.0,84,0.00,,,-99.99,,2013-12-12 03:59:00,
2013-12-11 19:00:00,32.1,27.9,29.34,North,0,0.0,-999.0,84,0.00,,,-99.99,,2013-12-12 04:00:00,
2013-12-11 19:01:00,32.9,27.2,29.35,North,0,0.0,-999.0,79,0.00,,,-99.99,,2013-12-12 04:01:00,
2013-12-11 19:02:00,32.2,28.0,29.34,North,0,0.0,-999.0,84,0.00,,,-99.99,,2013-12-12 04:02:00,
2013-12-11 19:03:00,32.0,27.8,29.34,North,0,0.0,-999.0,84,0.00,,,-99.99,,2013-12-12 04:03:00,
2013-12-11 19:04:00,32.0,27.9,29.34,North,0,0.0,-999.0,84,0.00,,,-99.99,,2013-12-12 04:04:00,
2013-12-11 19:05:00,31.8,27.7,29.34,North,0,0.0,-999.0,84,0.00,,,-99.99,,2013-12-12 04:05:00,
2013-12-11 19:06:00,32.6,27.0,29.36,North,0,0.0,-999.0,79,0.00,,,-99.99,,2013-12-12 04:06:00,
2013-12-11 19:07:00,32.1,28.0,29.34,North,0,0.0,-999.0,84,0.00,,,-99.99,,2013-12-12 04:07:00,
2013-12-11 19:08:00,31.9,27.9,29.34,North,0,0.0,-999.0,84,0.00,,,-99.99,,2013-12-12 04:08:00,
2013-12-11 19:09:00,32.0,27.9,29.34,North,0,0.0,-999.0,84,0.00,,,-99.99,,2013-12-12 04:09:00,
2013-12-11 19:10:00,31.8,27.8,29.33,North,0,0.0,-999.0,84,0.00,,,-99.99,,2013-12-12 04:10:00,
2013-12-11 19:11:00,32.4,26.5,29.36,North,0,0.0,-999.0,78,0.00,,,-99.99,,2013-12-12 04:11:00,
2013-12-11 19:12:00,31.8,27.8,29.33,North,0,0.0,-999.0,85,0.00,,,-99.99,,2013-12-12 04:12:00,
2013-12-11 19:13:00,31.8,27.9,29.33,North,0,0.0,-999.0,85,0.00,,,-99.99,,2013-12-12 04:13:00,
2013-12-11 19:14:00,31.8,27.9,29.33,North,0,0.0,-999.0,85,0.00,,,-99.99,,2013-12-12 04:14:00,
2013-12-11 19:15:00,31.8,27.9,29.34,North,0,0.0,-999.0,85,0.00,,,-99.99,,2013-12-12 04:15:00,
2013-12-11 19:16:00,32.5,26.4,29.36,North,0,0.0,-999.0,77,0.00,,,-99.99,,2013-12-12 04:16:00,
2013-12-11 19:17:00,31.8,28.1,29.34,North,0,0.0,-999.0,85,0.00,,,-99.99,,2013-12-12 04:17:00,
2013-12-11 19:18:00,31.8,28.1,29.34,North,0,0.0,-999.0,85,0.00,,,-99.99,,2013-12-12 04:18:00,
2013-12-11 19:19:00,31.7,28.0,29.34,North,0,0.0,-999.0,85,0.00,,,-99.99,,2013-12-12 04:19:00,
2013-12-11 19:20:00,31.7,28.0,29.33,North,0,0.0,-999.0,85,0.00,,,-99.99,,2013-12-12 04:20:00,
2013-12-11 19:21:00,32.3,26.4,29.35,North,0,0.0,-999.0,78,0.00,,,-99.99,,2013-12-12 04:21:00,
2013-12-11 19:22:00,31.6,28.0,29.33,North,0,0.0,-999.0,86,0.00,,,-99.99,,2013-12-12 04:22:00,
2013-12-11 19:23:00,31.5,27.9,29.33,North,0,0.0,-999.0,86,0.00,,,-99.99,,2013-12-12 04:23:00,
2013-12-11 19:24:00,31.6,28.0,29.33,North,0,0.0,-999.0,86,0.00,,,-99.99,,2013-12-12 04:24:00,
2013-12-11 19:25:00,31.7,28.2,29.33,North,0,0.0,-999.0,86,0.00,,,-99.99,,2013-12-12 04:25:00,
2013-12-11 19:26:00,32.3,26.7,29.35,North,0,0.0,-999.0,79,0.00,,,-99.99,,2013-12-12 04:26:00,
2013-12-11 19:27:00,31.5,28.1,29.33,North,0,0.0,-999.0,86,0.00,,,-99.99,,2013-12-12 04:27:00,
2013-12-11 19:28:00,31.5,28.2,29.33,North,0,0.0,-999.0,87,0.00,,,-99.99,,2013-12-12 04:28:00,
2013-12-11 19:29:00,31.5,28.2,29.33,North,0,0.0,-999.0,87,0.00,,,-99.99,,2013-12-12 04:29:00,
2013-12-11 19:30:00,31.4,28.1,29.33,North,0,0.0,-999.0,87,0.00,,,-99.99,,2013-12-12 04:30:00,
2013-12-11 19:31:00,32.4,27.1,29.34,North,0,0.0,-999.0,80,0.00,,,-99.99,,2013-12-12 04:31:00,
2013-12-11 19:32:00,31.3,28.1,29.33,North,0,0.0,-999.0,87,0.00,,,-99.99,,2013-12-12 04:32:00,
2013-12-11 19:33:00,31.3,28.2,29.33,North,0,0.0,-999.0,87,0.00,,,-99.99,,2013-12-12 04:33:00,
2013-12-11 19:34:00,31.3,28.2,29.33,North,0,0.0,-999.0,88,0.00,,,-99.99,,2013-12-12 04:34:00,
2013-12-11 19:35:00,31.3,28.2,29.33,North,0,0.0,-999.0,88,0.00,,,-99.99,,2013-12-12 04:35:00,
2013-12-11 19:36:00,32.6,27.1,29.35,North,0,0.0,-999.0,80,0.00,,,-99.99,,2013-12-12 04:36:00,
2013-12-11 19:37:00,31.1,28.2,29.33,North,0,0.0,-999.0,88,0.00,,,-99.99,,2013-12-12 04:37:00,
2013-12-11 19:38:00,31.2,28.2,29.33,North,0,0.0,-999.0,88,0.00,,,-99.99,,2013-12-12 04:38:00,
2013-12-11 19:39:00,31.2,28.3,29.33,North,0,0.0,-999.0,88,0.00,,,-99.99,,2013-12-12 04:39:00,
2013-12-11 19:40:00,31.2,28.3,29.33,North,0,0.0,-999.0,88,0.00,,,-99.99,,2013-12-12 04:40:00,
2013-12-11 19:41:00,32.6,27.4,29.35,North,0,0.0,-999.0,80,0.00,,,-99.99,,2013-12-12 04:41:00,
2013-12-11 19:42:00,31.3,28.4,29.33,North,0,0.0,-999.0,88,0.00,,,-99.99,,2013-12-12 04:42:00,
2013-12-11 19:43:00,31.1,28.2,29.33,North,0,0.0,-999.0,89,0.00,,,-99.99,,2013-12-12 04:43:00,
2013-12-11 19:44:00,30.9,28.1,29.33,North,0,0.0,-999.0,89,0.00,,,-99.99,,2013-12-12 04:44:00,
2013-12-11 19:45:00,31.0,28.3,29.33,North,0,0.0,-999.0,89,0.00,,,-99.99,,2013-12-12 04:45:00,
2013-12-11 19:46:00,32.6,27.7,29.35,North,0,0.0,-999.0,81,0.00,,,-99.99,,2013-12-12 04:46:00,
2013-12-11 19:47:00,31.0,28.3,29.33,North,0,0.0,-999.0,89,0.00,,,-99.99,,2013-12-12 04:47:00,
2013-12-11 19:48:00,30.9,28.2,29.33,North,0,0.0,-999.0,89,0.00,,,-99.99,,2013-12-12 04:48:00,
2013-12-11 19:49:00,30.9,28.3,29.33,North,0,0.0,-999.0,89,0.00,,,-99.99,,2013-12-12 04:49:00,
2013-12-11 19:50:00,31.0,28.4,29.33,North,0,0.0,-999.0,89,0.00,,,-99.99,,2013-12-12 04:50:00,
2013-12-11 19:51:00,32.4,27.7,29.35,North,0,0.0,-999.0,82,0.00,,,-99.99,,2013-12-12 04:51:00,
2013-12-11 19:52:00,31.1,28.5,29.33,North,0,0.0,-999.0,90,0.00,,,-99.99,,2013-12-12 04:52:00,
2013-12-11 19:53:00,31.0,28.5,29.33,North,0,0.0,-999.0,90,0.00,,,-99.99,,2013-12-12 04:53:00,
2013-12-11 19:54:00,30.8,28.3,29.33,North,0,0.0,-999.0,90,0.00,,,-99.99,,2013-12-12 04:54:00,
2013-12-11 19:55:00,31.0,28.5,29.33,North,0,0.0,-999.0,90,0.00,,,-99.99,,2013-12-12 04:55:00,
2013-12-11 19:56:00,32.1,27.4,29.34,North,0,0.0,-999.0,82,0.00,,,-99.99,,2013-12-12 04:56:00,
2013-12-11 19:57:00,30.9,28.5,29.33,North,0,0.0,-999.0,90,0.00,,,-99.99,,2013-12-12 04:57:00,
2013-12-11 19:58:00,31.0,28.6,29.33,North,0,0.0,-999.0,90,0.00,,,-99.99,,2013-12-12 04:58:00,
2013-12-11 19:59:00,31.1,28.7,29.33,North,0,0.0,-999.0,90,0.00,,,-99.99,,2013-12-12 04:59:00,
2013-12-11 20:00:00,31.0,28.6,29.33,North,0,0.0,-999.0,90,0.00,,,-99.99,,2013-12-12 05:00:00,
2013-12-11 20:01:00,30.8,28.5,29.33,North,0,0.0,-999.0,90,0.00,,,-99.99,,2013-12-12 05:01:00,
2013-12-11 20:02:00,31.1,28.9,29.33,North,0,0.0,-999.0,91,0.00,,,-99.99,,2013-12-12 05:02:00,
2013-12-11 20:03:00,31.1,28.8,29.33,North,0,0.0,-999.0,91,0.00,,,-99.99,,2013-12-12 05:03:00,
2013-12-11 20:04:00,31.0,28.8,29.33,North,0,0.0,-999.0,91,0.00,,,-99.99,,2013-12-12 05:04:00,
2013-12-11 20:05:00,31.1,28.9,29.33,North,0,0.0,-999.0,91,0.00,,,-99.99,,2013-12-12 05:05:00,
2013-12-11 20:06:00,31.0,28.7,29.33,North,0,0.0,-999.0,91,0.00,,,-99.99,,2013-12-12 05:06:00,
2013-12-11 20:07:00,31.1,28.8,29.33,North,0,0.0,-999.0,91,0.00,,,-99.99,,2013-12-12 05:07:00,
2013-12-11 20:08:00,30.9,28.6,29.33,North,0,0.0,-999.0,91,0.00,,,-99.99,,2013-12-12 05:08:00,
2013-12-11 20:09:00,31.1,28.8,29.33,North,0,0.0,-999.0,91,0.00,,,-99.99,,2013-12-12 05:09:00,
2013-12-11 20:10:00,31.1,28.9,29.33,North,0,0.0,-999.0,91,0.00,,,-99.99,,2013-12-12 05:10:00,
2013-12-11 20:11:00,31.1,28.9,29.33,North,0,0.0,-999.0,91,0.00,,,-99.99,,2013-12-12 05:11:00,
2013-12-11 20:12:00,31.1,28.9,29.33,North,0,0.0,-999.0,91,0.00,,,-99.99,,2013-12-12 05:12:00,
2013-12-11 20:13:00,31.1,28.9,29.33,North,0,0.0,-999.0,91,0.00,,,-99.99,,2013-12-12 05:13:00,
2013-12-11 20:14:00,31.1,28.9,29.33,North,0,0.0,-999.0,91,0.00,,,-99.99,,2013-12-12 05:14:00,
2013-12-11 20:15:00,31.0,28.9,29.33,North,0,0.0,-999.0,91,0.00,,,-99.99,,2013-12-12 05:15:00,
2013-12-11 20:16:00,31.0,28.9,29.33,North,0,0.0,-999.0,91,0.00,,,-99.99,,2013-12-12 05:16:00,
2013-12-11 20:17:00,31.0,28.8,29.33,North,0,0.0,-999.0,91,0.00,,,-99.99,,2013-12-12 05:17:00,
2013-12-11 20:18:00,31.0,28.8,29.33,North,0,0.0,-999.0,91,0.00,,,-99.99,,2013-12-12 05:18:00,
2013-12-11 20:19:00,31.1,29.0,29.33,North,0,0.0,-999.0,91,0.00,,,-99.99,,2013-12-12 05:19:00,
2013-12-11 20:20:00,31.0,28.9,29.33,North,0,0.0,-999.0,91,0.00,,,-99.99,,2013-12-12 05:20:00,
2013-12-11 20:25:00,31.1,29.0,29.33,North,0,0.0,-999.0,92,0.00,,,-99.99,,2013-12-12 05:25:00,
2013-12-11 20:27:00,31.0,28.9,29.33,North,0,0.0,-999.0,92,0.00,,,-99.99,,2013-12-12 05:27:00,
2013-12-11 20:28:00,31.1,29.1,29.33,North,0,0.0,-999.0,92,0.00,,,-99.99,,2013-12-12 05:28:00,
2013-12-11 20:30:00,31.1,29.2,29.33,North,0,0.0,-999.0,92,0.00,,,-99.99,,2013-12-12 05:30:00,
2013-12-11 20:31:00,31.3,29.3,29.33,North,0,0.0,-999.0,92,0.00,,,-99.99,,2013-12-12 05:31:00,
2013-12-11 20:33:00,31.1,29.2,29.33,North,0,0.0,-999.0,92,0.00,,,-99.99,,2013-12-12 05:33:00,
2013-12-11 20:37:00,31.0,29.2,29.33,North,0,0.0,-999.0,92,0.00,,,-99.99,,2013-12-12 05:37:00,
2013-12-11 20:51:00,30.9,29.1,29.33,North,0,0.0,-999.0,93,0.00,,,-99.99,,2013-12-12 05:51:00,
2013-12-11 20:52:00,30.8,29.0,29.33,North,0,0.0,-999.0,93,0.00,,,-99.99,,2013-12-12 05:52:00,
2013-12-11 20:53:00,30.6,28.9,29.33,North,0,0.0,-999.0,93,0.00,,,-99.99,,2013-12-12 05:53:00,
2013-12-11 20:57:00,30.7,28.9,29.32,North,0,0.0,-999.0,93,0.00,,,-99.99,,2013-12-12 05:57:00,
2013-12-11 20:59:00,30.7,29.0,29.32,North,0,0.0,-999.0,93,0.00,,,-99.99,,2013-12-12 05:59:00,
2013-12-11 21:03:00,30.6,28.9,29.33,North,0,0.0,-999.0,93,0.00,,,-99.99,,2013-12-12 06:03:00,
2013-12-11 21:04:00,30.7,28.9,29.33,North,0,0.0,-999.0,93,0.00,,,-99.99,,2013-12-12 06:04:00,
2013-12-11 21:07:00,30.6,28.9,29.33,North,0,0.0,-999.0,93,0.00,,,-99.99,,2013-12-12 06:07:00,
2013-12-11 21:09:00,30.5,28.7,29.33,North,0,0.0,-999.0,93,0.00,,,-99.99,,2013-12-12 06:09:00,
2013-12-11 21:11:00,30.4,28.6,29.33,North,0,0.0,-999.0,93,0.00,,,-99.99,,2013-12-12 06:11:00,
2013-12-11 21:12:00,30.2,28.4,29.33,North,0,0.0,-999.0,92,0.00,,,-99.99,,2013-12-12 06:12:00,
2013-12-11 21:13:00,30.3,28.5,29.33,North,0,0.0,-999.0,92,0.00,,,-99.99,,2013-12-12 06:13:00,
2013-12-11 21:14:00,30.2,28.4,29.33,North,0,0.0,-999.0,92,0.00,,,-99.99,,2013-12-12 06:14:00,
2013-12-11 21:16:00,30.3,28.5,29.32,North,0,0.0,-999.0,92,0.00,,,-99.99,,2013-12-12 06:16:00,
2013-12-11 21:18:00,30.1,28.2,29.32,North,0,0.0,-999.0,92,0.00,,,-99.99,,2013-12-12 06:18:00,
2013-12-11 21:19:00,29.9,27.9,29.32,North,0,0.0,-999.0,92,0.00,,,-99.99,,2013-12-12 06:19:00,
2013-12-11 21:21:00,29.9,27.9,29.32,North,0,0.0,-999.0,92,0.00,,,-99.99,,2013-12-12 06:21:00,
2013-12-11 21:23:00,29.9,27.9,29.32,North,0,0.0,-999.0,92,0.00,,,-99.99,,2013-12-12 06:23:00,
2013-12-11 21:26:00,29.9,27.9,29.32,North,0,0.0,-999.0,92,0.00,,,-99.99,,2013-12-12 06:26:00,
2013-12-11 21:28:00,29.9,27.9,29.32,North,0,0.0,-999.0,91,0.00,,,-99.99,,2013-12-12 06:28:00,
2013-12-11 21:29:00,30.9,28.8,29.33,North,0,0.0,-999.0,91,0.00,,,-99.99,,2013-12-12 06:29:00,
2013-12-11 21:30:00,29.8,27.7,29.32,North,0,0.0,-999.0,91,0.00,,,-99.99,,2013-12-12 06:30:00,
2013-12-11 21:31:00,29.8,27.6,29.32,North,0,0.0,-999.0,91,0.00,,,-99.99,,2013-12-12 06:31:00,
2013-12-11 21:32:00,29.7,27.6,29.32,North,0,0.0,-999.0,91,0.00,,,-99.99,,2013-12-12 06:32:00,
2013-12-11 21:34:00,31.1,29.0,29.33,North,0,0.0,-999.0,92,0.00,,,-99.99,,2013-12-12 06:34:00,
2013-12-11 21:35:00,29.9,27.6,29.32,North,0,0.0,-999.0,91,0.00,,,-99.99,,2013-12-12 06:35:00,
2013-12-11 21:36:00,29.7,27.4,29.32,North,0,0.0,-999.0,90,0.00,,,-99.99,,2013-12-12 06:36:00,
2013-12-11 21:38:00,29.9,27.5,29.32,North,0,0.0,-999.0,90,0.00,,,-99.99,,2013-12-12 06:38:00,
2013-12-11 21:39:00,29.9,27.5,29.32,North,0,0.0,-999.0,90,0.00,,,-99.99,,2013-12-12 06:39:00,
2013-12-11 21:40:00,31.3,29.4,29.33,North,0,0.0,-999.0,92,0.00,,,-99.99,,2013-12-12 06:40:00,
2013-12-11 21:41:00,29.7,27.4,29.32,North,0,0.0,-999.0,90,0.00,,,-99.99,,2013-12-12 06:41:00,
2013-12-11 21:42:00,30.1,27.7,29.32,North,0,0.0,-999.0,90,0.00,,,-99.99,,2013-12-12 06:42:00,
2013-12-11 21:45:00,29.9,27.4,29.32,North,0,0.0,-999.0,90,0.00,,,-99.99,,2013-12-12 06:45:00,
2013-12-11 21:46:00,30.9,29.0,29.33,North,0,0.0,-999.0,92,0.00,,,-99.99,,2013-12-12 06:46:00,
2013-12-11 21:48:00,29.9,27.4,29.32,North,0,0.0,-999.0,90,0.00,,,-99.99,,2013-12-12 06:48:00,
2013-12-11 21:52:00,30.0,27.3,29.32,North,0,0.0,-999.0,89,0.00,,,-99.99,,2013-12-12 06:52:00,
2013-12-11 21:55:00,30.0,27.1,29.32,North,0,0.0,-999.0,88,0.00,,,-99.99,,2013-12-12 06:55:00,
2013-12-11 21:57:00,30.1,27.0,29.32,North,0,0.0,-999.0,88,0.00,,,-99.99,,2013-12-12 06:57:00,
2013-12-11 21:58:00,30.0,26.9,29.32,North,0,0.0,-999.0,88,0.00,,,-99.99,,2013-12-12 06:58:00,
2013-12-11 21:59:00,29.9,26.7,29.32,North,0,0.0,-999.0,87,0.00,,,-99.99,,2013-12-12 06:59:00,
2013-12-11 22:01:00,30.1,27.0,29.32,North,0,0.0,-999.0,87,0.00,,,-99.99,,2013-12-12 07:01:00,
2013-12-11 22:02:00,30.7,28.9,29.33,North,0,0.0,-999.0,93,0.00,,,-99.99,,2013-12-12 07:02:00,
2013-12-11 22:06:00,30.2,26.6,29.32,North,0,0.0,-999.0,86,0.00,,,-99.99,,2013-12-12 07:06:00,
2013-12-11 22:07:00,29.9,26.4,29.32,North,0,0.0,-999.0,86,0.00,,,-99.99,,2013-12-12 07:07:00,
2013-12-11 22:08:00,30.8,29.1,29.33,North,0,0.0,-999.0,93,0.00,,,-99.99,,2013-12-12 07:08:00,
2013-12-11 22:13:00,30.7,28.9,29.33,North,0,0.0,-999.0,93,0.00,,,-99.99,,2013-12-12 07:13:00,
2013-12-11 22:16:00,29.9,25.8,29.31,North,0,0.0,-999.0,84,0.00,,,-99.99,,2013-12-12 07:16:00,
2013-12-11 22:18:00,30.5,28.7,29.33,North,0,0.0,-999.0,93,0.00,,,-99.99,,2013-12-12 07:18:00,
2013-12-11 22:20:00,29.9,25.8,29.31,North,0,0.0,-999.0,84,0.00,,,-99.99,,2013-12-12 07:20:00,
2013-12-11 22:22:00,30.0,26.0,29.31,North,0,0.0,-999.0,84,0.00,,,-99.99,,2013-12-12 07:22:00,
2013-12-11 22:23:00,30.3,28.5,29.32,North,0,0.0,-999.0,92,0.00,,,-99.99,,2013-12-12 07:23:00,
2013-12-11 22:24:00,30.1,26.0,29.31,North,0,0.0,-999.0,84,0.00,,,-99.99,,2013-12-12 07:24:00,
2013-12-11 22:28:00,29.9,28.0,29.32,North,0,0.0,-999.0,92,0.00,,,-99.99,,2013-12-12 07:28:00,
2013-12-11 22:29:00,30.2,26.2,29.32,North,0,0.0,-999.0,84,0.00,,,-99.99,,2013-12-12 07:29:00,
2013-12-11 22:33:00,30.0,28.0,29.32,North,0,0.0,-999.0,92,0.00,,,-99.99,,2013-12-12 07:33:00,
2013-12-11 22:34:00,30.2,26.1,29.32,North,0,0.0,-999.0,84,0.00,,,-99.99,,2013-12-12 07:34:00,
2013-12-11 22:41:00,30.0,27.8,29.32,North,0,0.0,-999.0,91,0.00,,,-99.99,,2013-12-12 07:41:00,
2013-12-11 22:42:00,30.2,25.9,29.32,North,0,0.0,-999.0,83,0.00,,,-99.99,,2013-12-12 07:42:00,
2013-12-11 22:43:00,30.3,26.0,29.32,North,0,0.0,-999.0,84,0.00,,,-99.99,,2013-12-12 07:43:00,
2013-12-11 22:51:00,30.0,27.6,29.32,North,0,0.0,-999.0,90,0.00,,,-99.99,,2013-12-12 07:51:00,
2013-12-11 22:53:00,30.2,25.7,29.32,North,0,0.0,-999.0,83,0.00,,,-99.99,,2013-12-12 07:53:00,
2013-12-11 22:57:00,30.0,27.5,29.32,North,0,0.0,-999.0,90,0.00,,,-99.99,,2013-12-12 07:57:00,
2013-12-11 23:02:00,30.0,27.2,29.32,North,0,0.0,-999.0,89,0.00,,,-99.99,,2013-12-12 08:02:00,
2013-12-11 23:08:00,30.0,26.9,29.32,North,0,0.0,-999.0,87,0.00,,,-99.99,,2013-12-12 08:08:00,
2013-12-11 23:13:00,30.0,26.6,29.32,North,0,0.0,-999.0,86,0.00,,,-99.99,,2013-12-12 08:13:00,
2013-12-11 23:18:00,30.0,26.1,29.31,North,0,0.0,-999.0,85,0.00,,,-99.99,,2013-12-12 08:18:00,
2013-12-11 23:23:00,30.0,25.9,29.31,North,0,0.0,-999.0,84,0.00,,,-99.99,,2013-12-12 08:23:00,
2013-12-11 23:29:00,30.2,26.1,29.31,North,0,0.0,-999.0,84,0.00,,,-99.99,,2013-12-12 08:29:00,
2013-12-11 23:34:00,30.2,26.1,29.32,North,0,0.0,-999.0,84,0.00,,,-99.99,,2013-12-12 08:34:00,
2013-12-11 23:39:00,30.3,26.1,29.32,North,0,0.0,-999.0,84,0.00,,,-99.99,,2013-12-12 08:39:00,
2013-12-11 23:44:00,30.0,25.8,29.32,North,0,0.0,-999.0,83,0.00,,,-99.99,,2013-12-12 08:44:00,
2013-12-11 23:49:00,30.3,26.0,29.32,North,0,0.0,-999.0,83,0.00,,,-99.99,,2013-12-12 08:49:00,
2013-12-11 23:54:00,30.2,25.9,29.32,North,0,0.0,-999.0,83,0.00,,,-99.99,,2013-12-12 08:54:00,
2013-12-11 23:59:00,30.4,26.1,29.32,North,0,0.0,-999.0,83,0.00,,,-99.99,,2013-12-12 08:59:00,